createdAt,value
2022-10-05T00:00:45.611Z,99632.19
2022-10-05T00:03:13.580Z,99609.22
2022-10-05T00:05:44.436Z,99592.34
2022-10-05T00:08:15.567Z,99580.53
2022-10-05T00:10:44.351Z,99572.41
2022-10-05T00:13:17.080Z,99568.22
2022-10-05T00:15:45.597Z,99573.66
2022-10-05T00:18:16.546Z,99573.63
2022-10-05T00:20:47.048Z,99570.53
2022-10-05T00:23:19.353Z,99547.41
2022-10-05T00:25:47.758Z,99527.03
2022-10-05T00:28:19.938Z,99502.84
2022-10-05T00:30:48.319Z,99491.50
2022-10-05T00:33:16.268Z,99465.34
2022-10-05T00:35:45.731Z,99440.31
2022-10-05T00:38:13.730Z,99421.41
2022-10-05T00:41:01.686Z,99391.09
2022-10-05T00:43:43.232Z,99395.66
2022-10-05T00:46:17.647Z,99403.34
2022-10-05T00:48:55.215Z,99403.34
2022-10-05T00:51:28.694Z,99402.25
2022-10-05T00:54:12.592Z,99385.28
2022-10-05T00:57:05.977Z,99354.44
2022-10-05T00:59:47.646Z,99351.38
2022-10-05T01:02:24.323Z,99327.41
2022-10-05T01:05:00.877Z,99295.28
2022-10-05T01:07:38.717Z,99279.22
2022-10-05T01:10:15.938Z,99262.84
2022-10-05T01:12:52.011Z,99264.28
2022-10-05T01:15:29.776Z,99255.47
2022-10-05T01:18:07.086Z,99261.41
2022-10-05T01:20:52.565Z,99265.81
2022-10-05T01:24:02.668Z,99291.25
2022-10-05T01:26:47.819Z,99325.25
2022-10-05T01:29:23.989Z,99347.00
2022-10-05T01:31:58.964Z,99379.28
2022-10-05T01:34:37.075Z,99385.97
2022-10-05T01:37:13.618Z,99400.25
2022-10-05T01:39:47.686Z,99413.88
2022-10-05T01:42:24.591Z,99417.91
2022-10-05T01:45:00.430Z,99423.09
2022-10-05T01:47:35.944Z,99406.81
2022-10-05T01:50:09.552Z,99394.53
2022-10-05T01:52:45.099Z,99390.28
2022-10-05T01:55:22.049Z,99374.06
2022-10-05T01:58:03.243Z,99365.22
2022-10-05T02:00:37.348Z,99369.75
2022-10-05T02:03:11.636Z,99382.88
2022-10-05T02:05:48.053Z,99377.47
2022-10-05T02:08:22.992Z,99367.06
2022-10-05T02:10:58.607Z,99384.22
2022-10-05T02:13:36.081Z,99414.28
2022-10-05T02:16:11.346Z,99437.31
2022-10-05T02:18:45.040Z,99456.00
2022-10-05T02:21:13.403Z,99458.53
2022-10-05T02:23:44.069Z,99475.38
2022-10-05T02:26:13.754Z,99483.34
2022-10-05T02:28:48.276Z,99482.47
2022-10-05T02:31:23.770Z,99485.84
2022-10-05T02:33:52.159Z,99492.88
2022-10-05T02:36:30.513Z,99498.44
2022-10-05T02:39:06.466Z,99491.63
2022-10-05T02:41:47.953Z,99481.56
2022-10-05T02:44:31.906Z,99473.00
2022-10-05T02:47:10.270Z,99467.31
2022-10-05T02:49:46.575Z,99482.03
2022-10-05T02:52:23.006Z,99484.03
2022-10-05T03:18:30.495Z,98974.34
2022-10-05T03:21:12.983Z,98942.16
2022-10-05T03:23:56.264Z,98931.13
2022-10-05T03:26:57.343Z,98861.72
2022-10-05T03:29:34.331Z,98810.97
2022-10-05T03:32:18.481Z,98780.91
2022-10-05T03:34:55.044Z,98748.06
2022-10-05T03:38:49.837Z,98722.44
2022-10-05T03:41:22.835Z,98686.25
2022-10-05T03:44:09.512Z,98682.47
2022-10-05T03:47:07.589Z,98677.91
2022-10-05T03:49:47.435Z,98649.72
2022-10-05T03:52:27.357Z,98618.41
2022-10-05T03:57:39.905Z,98587.25
2022-10-05T04:00:16.159Z,98556.94
2022-10-05T04:02:55.886Z,98532.50
2022-10-05T04:06:13.768Z,98502.84
2022-10-05T04:08:48.923Z,98490.72
2022-10-05T04:11:50.409Z,98485.47
2022-10-05T04:14:24.007Z,98464.03
2022-10-05T04:16:59.021Z,98432.31
2022-10-05T04:19:38.078Z,98357.22
2022-10-05T04:22:56.683Z,98312.56
2022-10-05T04:25:39.384Z,98270.94
2022-10-05T04:28:57.575Z,98261.00
2022-10-05T04:32:36.386Z,98243.91
2022-10-05T04:35:34.461Z,98241.88
2022-10-05T04:38:25.064Z,98232.72
2022-10-05T04:41:06.906Z,98221.22
2022-10-05T04:43:46.857Z,98229.34
2022-10-05T04:46:30.500Z,98200.78
2022-10-05T04:49:19.122Z,98192.81
2022-10-05T04:51:59.816Z,98178.28
2022-10-05T04:58:02.392Z,98181.00
2022-10-05T05:11:46.196Z,98169.53
2022-10-05T05:14:33.509Z,98173.56
2022-10-05T05:17:25.532Z,98190.31
2022-10-05T05:24:36.768Z,98148.50
2022-10-05T05:31:59.017Z,98106.06
2022-10-05T05:34:56.770Z,98125.72
2022-10-05T05:41:10.635Z,98109.81
2022-10-05T05:44:23.642Z,98102.31
2022-10-05T05:47:04.859Z,98109.13
2022-10-05T05:50:39.027Z,98093.34
2022-10-05T05:53:50.669Z,98069.16
2022-10-05T06:03:52.406Z,98071.53
2022-10-05T06:06:53.109Z,98063.38
2022-10-05T06:09:25.845Z,98075.09
2022-10-05T06:12:08.648Z,98081.81
2022-10-05T06:45:59.218Z,98020.00
2022-10-05T06:49:16.358Z,98026.91
2022-10-05T06:52:20.535Z,98030.38
2022-10-05T06:54:58.726Z,98035.34
2022-10-05T06:57:43.923Z,98046.16
2022-10-05T07:01:03.325Z,98041.53
2022-10-05T07:03:43.697Z,98047.00
2022-10-05T07:09:16.142Z,98052.44
2022-10-05T07:12:04.827Z,98049.06
2022-10-05T07:14:54.267Z,98045.78
2022-10-05T07:17:39.982Z,98054.22
2022-10-05T07:20:18.557Z,98041.66
2022-10-05T07:23:37.253Z,98051.72
2022-10-05T13:35:23.365Z,98145.44
2022-10-05T13:38:06.007Z,98150.06
2022-10-05T13:40:50.654Z,98159.75
2022-10-05T13:43:29.218Z,98174.38
2022-10-05T13:46:06.919Z,98193.47
2022-10-05T13:48:51.031Z,98200.19
2022-10-05T13:51:24.717Z,98195.63
2022-10-05T13:54:02.127Z,98191.97
2022-10-05T13:56:33.712Z,98226.13
2022-10-05T13:59:15.011Z,98234.63
2022-10-05T14:02:10.100Z,98221.91
2022-10-05T14:04:47.885Z,98233.31
2022-10-05T14:07:26.195Z,98231.69
2022-10-05T14:09:54.898Z,98245.34
2022-10-05T14:12:24.611Z,98248.84
2022-10-05T14:14:54.863Z,98250.81
2022-10-05T14:17:39.575Z,98247.00
2022-10-05T14:20:24.260Z,98260.78
2022-10-05T14:22:58.468Z,98275.34
2022-10-05T14:25:26.769Z,98287.44
2022-10-05T14:28:00.835Z,98288.91
2022-10-05T14:30:31.034Z,98296.53
2022-10-05T14:33:11.812Z,98278.47
2022-10-05T14:35:49.212Z,98277.34
2022-10-05T14:38:21.977Z,98294.22
2022-10-05T14:41:18.182Z,98279.22
2022-10-05T14:43:56.212Z,98290.44
2022-10-05T14:46:29.079Z,98313.31
2022-10-05T14:49:26.389Z,98331.78
2022-10-05T14:51:55.999Z,98344.69
2022-10-05T14:54:30.533Z,98354.38
2022-10-05T14:57:08.037Z,98348.03
2022-10-05T14:59:50.647Z,98345.06
2022-10-05T15:02:49.125Z,98358.88
2022-10-05T15:05:24.882Z,98370.06
2022-10-05T15:07:58.039Z,98380.16
2022-10-05T15:10:37.578Z,98394.19
2022-10-05T15:13:13.365Z,98402.00
2022-10-05T15:16:15.118Z,98385.69
2022-10-05T15:19:08.679Z,98395.38
2022-10-05T15:21:47.024Z,98400.03
2022-10-05T15:24:51.873Z,98399.00
2022-10-05T15:31:04.804Z,98417.34
2022-10-05T15:33:39.454Z,98436.34
2022-10-05T15:36:37.030Z,98440.13
2022-10-05T15:39:14.066Z,98435.03
2022-10-05T15:42:06.156Z,98455.72
2022-10-05T15:44:56.185Z,98442.19
2022-10-05T15:47:33.169Z,98464.78
2022-10-05T15:50:08.697Z,98468.78
2022-10-05T15:53:06.659Z,98471.47
2022-10-05T15:55:43.646Z,98472.97
2022-10-05T15:58:28.841Z,98488.94
2022-10-05T16:01:13.784Z,98493.88
2022-10-05T16:03:49.080Z,98502.91
2022-10-05T16:06:45.999Z,98497.88
2022-10-05T16:09:34.639Z,98516.81
2022-10-05T16:12:15.071Z,98526.91
2022-10-05T16:14:56.616Z,98536.22
2022-10-05T16:17:52.056Z,98547.38
2022-10-05T16:20:30.355Z,98542.75
2022-10-05T16:23:11.181Z,98557.69
2022-10-05T16:26:00.349Z,98562.75
2022-10-05T16:28:40.523Z,98591.94
2022-10-05T16:31:18.827Z,98592.75
2022-10-05T16:33:59.624Z,98603.94
2022-10-05T16:36:48.763Z,98610.66
2022-10-05T16:39:25.064Z,98618.69
2022-10-05T16:42:02.827Z,98633.78
2022-10-05T16:44:40.753Z,98639.03
2022-10-05T16:47:34.869Z,98635.66
2022-10-05T16:50:22.834Z,98644.63
2022-10-05T16:52:57.239Z,98672.22
2022-10-05T16:55:33.478Z,98701.59
2022-10-05T16:58:05.612Z,98711.28
2022-10-05T17:00:46.611Z,98737.97
2022-10-05T17:03:22.250Z,98721.31
2022-10-05T17:06:06.307Z,98748.00
2022-10-05T17:08:46.326Z,98756.34
2022-10-05T17:12:16.912Z,98751.66
2022-10-05T17:14:57.803Z,98768.28
2022-10-05T17:17:59.955Z,98776.94
2022-10-05T17:20:42.929Z,98769.59
2022-10-05T17:23:47.328Z,98780.63
2022-10-05T17:26:35.103Z,98787.84
2022-10-05T17:29:15.591Z,98799.22
2022-10-05T17:32:09.231Z,98818.84
2022-10-05T17:34:39.724Z,98819.84
2022-10-05T17:37:20.318Z,98836.31
2022-10-05T17:39:55.200Z,98848.28
2022-10-05T17:42:46.580Z,98842.88
2022-10-05T17:45:54.044Z,98836.69
2022-10-05T17:49:01.324Z,98846.81
2022-10-05T17:52:16.487Z,98850.19
2022-10-05T17:55:27.487Z,98853.38
2022-10-05T17:57:59.979Z,98863.97
2022-10-05T18:01:07.054Z,98867.22
2022-10-05T18:03:40.950Z,98863.97
2022-10-05T18:06:44.692Z,98845.75
2022-10-05T18:09:41.833Z,98877.06
2022-10-05T18:12:28.181Z,98857.84
2022-10-05T18:15:02.925Z,98848.03
2022-10-05T18:17:44.165Z,98841.50
2022-10-05T18:20:28.515Z,98846.50
2022-10-05T18:23:31.165Z,98849.88
2022-10-05T18:26:06.218Z,98845.09
2022-10-05T18:28:53.839Z,98853.00
2022-10-05T18:31:33.985Z,98850.34
2022-10-05T18:34:16.893Z,98843.56
2022-10-05T18:37:07.684Z,98855.63
2022-10-05T18:40:37.176Z,98857.09
2022-10-05T18:43:22.685Z,98843.28
2022-10-05T18:46:10.883Z,98850.97
2022-10-05T18:48:47.798Z,98856.66
2022-10-05T18:51:24.524Z,98865.28
2022-10-05T18:54:09.433Z,98852.69
2022-10-05T18:56:42.159Z,98868.78
2022-10-05T18:59:25.663Z,98857.00
2022-10-05T19:02:13.484Z,98860.78
2022-10-05T19:04:55.628Z,98863.88
2022-10-05T19:07:33.792Z,98866.25
2022-10-05T19:10:10.611Z,98855.22
2022-10-05T19:12:52.093Z,98864.16
2022-10-05T19:15:27.867Z,98843.28
2022-10-05T19:18:18.748Z,98864.25
2022-10-05T19:20:53.943Z,98863.03
2022-10-05T19:23:43.146Z,98870.56
2022-10-05T19:26:19.453Z,98867.22
2022-10-05T19:29:00.789Z,98865.69
2022-10-05T19:31:58.817Z,98869.00
2022-10-05T19:34:44.196Z,98869.97
2022-10-05T19:37:16.754Z,98865.38
2022-10-05T19:39:53.635Z,98862.31
2022-10-05T19:42:46.401Z,98851.50
2022-10-05T19:45:23.881Z,98852.31
2022-10-05T19:48:05.860Z,98855.72
2022-10-05T19:50:38.528Z,98846.84
2022-10-05T19:53:14.033Z,98852.13
2022-10-05T19:55:45.756Z,98842.75
2022-10-05T19:58:23.155Z,98836.22
2022-10-05T20:00:57.565Z,98865.91
2022-10-05T20:03:30.663Z,98861.16
2022-10-05T20:06:01.937Z,98851.00
2022-10-05T20:08:39.369Z,98863.81
2022-10-05T20:11:12.783Z,98854.88
2022-10-05T20:13:42.262Z,98862.66
2022-10-05T20:16:45.733Z,98865.31
2022-10-05T20:19:46.526Z,98857.59
2022-10-05T20:22:28.888Z,98868.41
2022-10-05T20:25:00.201Z,98869.72
2022-10-05T20:27:54.971Z,98872.06
2022-10-05T20:30:25.021Z,98880.91
2022-10-05T20:33:10.497Z,98887.41
2022-10-05T20:35:38.698Z,98885.81
2022-10-05T20:38:08.193Z,98893.97
2022-10-05T20:40:36.602Z,98901.41
2022-10-05T20:43:04.710Z,98904.78
2022-10-05T20:45:32.830Z,98897.47
2022-10-05T20:48:00.956Z,98897.78
2022-10-05T20:50:29.233Z,98897.13
2022-10-05T20:52:57.666Z,98894.72
2022-10-05T20:55:31.335Z,98892.66
2022-10-05T20:58:05.657Z,98897.84
2022-10-05T21:01:06.756Z,98905.84
2022-10-05T21:03:42.637Z,98883.47
2022-10-05T21:06:11.704Z,98877.72
2022-10-05T21:08:40.055Z,98891.09
2022-10-05T21:11:10.014Z,98882.34
2022-10-05T21:13:42.464Z,98879.03
2022-10-05T21:16:12.974Z,98896.81
2022-10-05T21:18:41.424Z,98868.59
2022-10-05T21:21:09.586Z,98864.63
2022-10-05T21:23:37.666Z,98892.88
2022-10-05T21:26:07.396Z,98884.47
2022-10-05T21:28:36.934Z,98883.06
2022-10-05T21:31:05.254Z,98887.81
2022-10-05T21:33:33.623Z,98896.16
2022-10-05T21:36:02.152Z,98867.19
2022-10-05T21:38:30.757Z,98827.50
2022-10-05T21:40:59.131Z,98792.72
2022-10-05T21:43:27.494Z,98774.34
2022-10-05T21:45:57.678Z,98736.50
2022-10-05T21:48:27.353Z,98707.06
2022-10-05T21:50:55.714Z,98698.56
2022-10-05T21:53:50.682Z,98700.72
2022-10-05T21:56:21.592Z,98666.63
2022-10-05T21:58:51.541Z,98647.03
2022-10-05T22:01:22.883Z,98604.50
2022-10-05T22:03:51.724Z,98585.56
2022-10-05T22:06:19.768Z,98555.53
2022-10-05T22:08:47.864Z,98553.03
2022-10-05T22:11:19.916Z,98560.69
2022-10-05T22:13:50.068Z,98562.19
2022-10-05T22:16:21.409Z,98535.63
2022-10-05T22:18:50.224Z,98527.47
2022-10-05T22:21:18.609Z,98524.28
2022-10-05T22:23:47.158Z,98525.31
2022-10-05T22:26:18.294Z,98509.38
2022-10-05T22:28:55.566Z,98528.78
2022-10-05T22:31:25.127Z,98518.97
2022-10-05T22:34:04.549Z,98511.09
2022-10-05T22:36:35.941Z,98501.97
2022-10-05T22:39:04.252Z,98515.38
2022-10-05T22:41:32.330Z,98524.66
2022-10-05T22:44:00.870Z,98509.66
2022-10-05T22:46:30.341Z,98541.75
2022-10-05T22:49:59.797Z,98543.44
2022-10-05T22:52:40.521Z,98555.41
2022-10-05T22:55:09.342Z,98565.41
2022-10-05T22:57:40.219Z,98549.53
2022-10-05T23:00:10.238Z,98605.81
2022-10-05T23:02:43.414Z,98628.13
2022-10-05T23:05:13.556Z,98671.84
2022-10-05T23:07:43.335Z,98726.06
2022-10-05T23:10:14.682Z,98728.59
2022-10-05T23:12:43.128Z,98754.34
2022-10-05T23:15:12.265Z,98737.38
2022-10-05T23:17:41.741Z,98725.19
2022-10-05T23:20:10.690Z,98728.56
2022-10-05T23:22:39.246Z,98736.84
2022-10-05T23:25:08.760Z,98752.59
2022-10-05T23:27:38.482Z,98725.81
2022-10-05T23:30:10.557Z,98725.25
2022-10-05T23:32:40.055Z,98734.72
2022-10-05T23:35:11.591Z,98733.22
2022-10-05T23:37:54.270Z,98715.94
2022-10-05T23:40:22.480Z,98709.47
2022-10-05T23:42:50.583Z,98729.78
2022-10-05T23:45:18.810Z,98715.41
2022-10-05T23:47:47.385Z,98715.22
2022-10-05T23:50:17.518Z,98726.06
2022-10-05T23:52:45.635Z,98733.22
2022-10-05T23:55:13.670Z,98734.09
2022-10-05T23:57:41.797Z,98737.31
